Sahovskaja, Russia
Current Conditions -  °F | °C
As of 10:30 PM on Monday 24 Nov 2014 (Local Time) from UUBW Reporting Station
Freezing Drizzle Freezing Drizzle  
Wind Chill: 21°   Ceiling: 800
Heat Index: 27°   Visibility: 3mi
Dew Point: 25°   Wind: 4mph
Humidity: 93%   Direction: NA
Pressure: 30.68"   Gusts: NA
Location:  56.03°N, 35.52°E
Report Text: UUBW 241930Z VRB02MPS 5000 -FZDZ BR OVC008 M03/M04 Q1039 TEMPOOVC006
Loading
Personal Weather Stations






























Interactive Weather Map New forecast layout! Learn more

10-Day Weather Forecast

Advertisements
Track Severe Weather on mobile